sensor_id;sensor_type;location;lat;lon;timestamp;pressure;altitude;pressure_sealevel;temperature;humidity
48848;BME280;36611;51.638;5.784;2022-12-17T00:00:03;102132.47;;;4.53;58.28
48848;BME280;36611;51.638;5.784;2022-12-17T00:02:57;102120.09;;;4.52;58.34
48848;BME280;36611;51.638;5.784;2022-12-17T00:05:43;102121.88;;;4.51;58.37
48848;BME280;36611;51.638;5.784;2022-12-17T00:08:29;102126.25;;;4.54;58.37
48848;BME280;36611;51.638;5.784;2022-12-17T00:11:14;102120.84;;;4.57;58.47
48848;BME280;36611;51.638;5.784;2022-12-17T00:13:59;102113.69;;;4.59;58.41
48848;BME280;36611;51.638;5.784;2022-12-17T00:16:44;102121.69;;;4.59;58.44
48848;BME280;36611;51.638;5.784;2022-12-17T00:19:29;102125.25;;;4.58;58.52
48848;BME280;36611;51.638;5.784;2022-12-17T00:22:14;102122.59;;;4.58;58.37
48848;BME280;36611;51.638;5.784;2022-12-17T00:24:59;102134.97;;;4.59;58.40
48848;BME280;36611;51.638;5.784;2022-12-17T00:27:44;102135.91;;;4.58;58.30
48848;BME280;36611;51.638;5.784;2022-12-17T00:30:29;102143.88;;;4.58;57.95
48848;BME280;36611;51.638;5.784;2022-12-17T00:33:15;102145.72;;;4.56;58.28
48848;BME280;36611;51.638;5.784;2022-12-17T00:36:01;102149.31;;;4.53;58.15
48848;BME280;36611;51.638;5.784;2022-12-17T00:38:46;102154.69;;;4.52;58.28
48848;BME280;36611;51.638;5.784;2022-12-17T00:41:31;102152.09;;;4.49;58.27
48848;BME280;36611;51.638;5.784;2022-12-17T00:44:16;102153.00;;;4.47;58.36
48848;BME280;36611;51.638;5.784;2022-12-17T00:47:01;102159.25;;;4.46;58.44
48848;BME280;36611;51.638;5.784;2022-12-17T00:49:47;102160.13;;;4.47;58.33
48848;BME280;36611;51.638;5.784;2022-12-17T00:52:32;102169.88;;;4.46;58.37
48848;BME280;36611;51.638;5.784;2022-12-17T00:55:17;102162.72;;;4.49;58.32
48848;BME280;36611;51.638;5.784;2022-12-17T00:58:02;102162.69;;;4.50;58.38
48848;BME280;36611;51.638;5.784;2022-12-17T01:00:47;102165.25;;;4.55;58.41
48848;BME280;36611;51.638;5.784;2022-12-17T01:03:32;102161.59;;;4.59;58.37
48848;BME280;36611;51.638;5.784;2022-12-17T01:06:17;102172.16;;;4.62;58.41
48848;BME280;36611;51.638;5.784;2022-12-17T01:09:02;102169.47;;;4.63;58.45
48848;BME280;36611;51.638;5.784;2022-12-17T01:11:47;102174.91;;;4.59;58.32
48848;BME280;36611;51.638;5.784;2022-12-17T01:14:32;102174.06;;;4.57;58.42
48848;BME280;36611;51.638;5.784;2022-12-17T01:17:17;102182.03;;;4.57;58.33
48848;BME280;36611;51.638;5.784;2022-12-17T01:20:03;102176.69;;;4.58;58.35
48848;BME280;36611;51.638;5.784;2022-12-17T01:22:48;102181.00;;;4.62;58.32
48848;BME280;36611;51.638;5.784;2022-12-17T01:25:33;102185.41;;;4.63;58.36
48848;BME280;36611;51.638;5.784;2022-12-17T01:28:23;102189.94;;;4.60;58.23
48848;BME280;36611;51.638;5.784;2022-12-17T01:31:09;102189.94;;;4.60;58.26
48848;BME280;36611;51.638;5.784;2022-12-17T01:34:00;102192.59;;;4.60;58.08
48848;BME280;36611;51.638;5.784;2022-12-17T01:36:46;102196.22;;;4.57;58.25
48848;BME280;36611;51.638;5.784;2022-12-17T01:39:31;102199.81;;;4.55;58.25
48848;BME280;36611;51.638;5.784;2022-12-17T01:42:16;102202.47;;;4.55;58.24
48848;BME280;36611;51.638;5.784;2022-12-17T01:45:12;102209.59;;;4.54;58.26
48848;BME280;36611;51.638;5.784;2022-12-17T01:48:01;102199.13;;;4.46;57.74
48848;BME280;36611;51.638;5.784;2022-12-17T01:50:50;102206.31;;;4.41;57.96
48848;BME280;36611;51.638;5.784;2022-12-17T01:53:40;102210.81;;;4.39;57.85
48848;BME280;36611;51.638;5.784;2022-12-17T01:56:27;102218.72;;;4.42;58.11
48848;BME280;36611;51.638;5.784;2022-12-17T01:59:13;102220.50;;;4.42;58.03
48848;BME280;36611;51.638;5.784;2022-12-17T02:01:58;102221.38;;;4.42;58.24
48848;BME280;36611;51.638;5.784;2022-12-17T02:04:44;102219.53;;;4.46;58.14
48848;BME280;36611;51.638;5.784;2022-12-17T02:07:45;102221.28;;;4.47;58.09
48848;BME280;36611;51.638;5.784;2022-12-17T02:10:54;102223.91;;;4.49;58.02
48848;BME280;36611;51.638;5.784;2022-12-17T02:13:48;102228.41;;;4.46;57.98
48848;BME280;36611;51.638;5.784;2022-12-17T02:16:43;102219.59;;;4.43;57.99
48848;BME280;36611;51.638;5.784;2022-12-17T02:25:47;102228.47;;;4.42;57.98
48848;BME280;36611;51.638;5.784;2022-12-17T02:28:37;102229.28;;;4.45;58.07
48848;BME280;36611;51.638;5.784;2022-12-17T02:31:24;102233.69;;;4.48;58.08
48848;BME280;36611;51.638;5.784;2022-12-17T02:34:10;102225.66;;;4.50;57.98
48848;BME280;36611;51.638;5.784;2022-12-17T02:36:56;102234.44;;;4.53;57.98
48848;BME280;36611;51.638;5.784;2022-12-17T02:39:41;102229.06;;;4.56;57.98
48848;BME280;36611;51.638;5.784;2022-12-17T02:42:29;102240.53;;;4.58;57.87
48848;BME280;36611;51.638;5.784;2022-12-17T02:45:16;102236.13;;;4.57;57.89
48848;BME280;36611;51.638;5.784;2022-12-17T02:48:02;102240.56;;;4.57;57.90
48848;BME280;36611;51.638;5.784;2022-12-17T02:50:48;102247.63;;;4.58;57.88
48848;BME280;36611;51.638;5.784;2022-12-17T02:53:34;102240.50;;;4.60;57.83
48848;BME280;36611;51.638;5.784;2022-12-17T02:56:20;102244.03;;;4.60;57.85
48848;BME280;36611;51.638;5.784;2022-12-17T02:59:05;102243.19;;;4.58;57.75
48848;BME280;36611;51.638;5.784;2022-12-17T03:01:51;102234.41;;;4.55;57.66
48848;BME280;36611;51.638;5.784;2022-12-17T03:04:37;102236.22;;;4.53;57.76
48848;BME280;36611;51.638;5.784;2022-12-17T03:07:43;102238.06;;;4.51;57.76
48848;BME280;36611;51.638;5.784;2022-12-17T03:10:28;102249.50;;;4.54;57.74
48848;BME280;36611;51.638;5.784;2022-12-17T03:13:23;102238.84;;;4.54;57.64
48848;BME280;36611;51.638;5.784;2022-12-17T03:16:11;102249.47;;;4.56;57.81
48848;BME280;36611;51.638;5.784;2022-12-17T03:19:02;102252.09;;;4.57;57.78
48848;BME280;36611;51.638;5.784;2022-12-17T03:21:48;102249.47;;;4.56;57.73
48848;BME280;36611;51.638;5.784;2022-12-17T03:24:32;102257.44;;;4.56;57.76
48848;BME280;36611;51.638;5.784;2022-12-17T03:27:17;102259.25;;;4.54;57.73
48848;BME280;36611;51.638;5.784;2022-12-17T03:30:05;102249.53;;;4.53;57.70
48848;BME280;36611;51.638;5.784;2022-12-17T03:32:50;102268.19;;;4.51;57.69
48848;BME280;36611;51.638;5.784;2022-12-17T03:35:35;102268.16;;;4.53;57.74
48848;BME280;36611;51.638;5.784;2022-12-17T03:38:20;102271.66;;;4.55;57.74
48848;BME280;36611;51.638;5.784;2022-12-17T03:41:05;102269.00;;;4.55;57.74
48848;BME280;36611;51.638;5.784;2022-12-17T03:43:52;102265.44;;;4.56;57.73
48848;BME280;36611;51.638;5.784;2022-12-17T03:46:37;102264.59;;;4.54;57.71
48848;BME280;36611;51.638;5.784;2022-12-17T03:49:22;102258.50;;;4.49;57.63
48848;BME280;36611;51.638;5.784;2022-12-17T03:52:07;102256.81;;;4.43;57.63
48848;BME280;36611;51.638;5.784;2022-12-17T03:54:51;102249.78;;;4.40;57.79
48848;BME280;36611;51.638;5.784;2022-12-17T03:57:36;102255.16;;;4.39;57.76
48848;BME280;36611;51.638;5.784;2022-12-17T04:00:21;102255.16;;;4.39;57.73
48848;BME280;36611;51.638;5.784;2022-12-17T04:03:06;102254.34;;;4.35;57.75
48848;BME280;36611;51.638;5.784;2022-12-17T04:05:51;102258.78;;;4.35;57.76
48848;BME280;36611;51.638;5.784;2022-12-17T04:08:36;102258.81;;;4.33;57.86
48848;BME280;36611;51.638;5.784;2022-12-17T04:11:21;102266.72;;;4.36;57.82
48848;BME280;36611;51.638;5.784;2022-12-17T04:14:06;102264.06;;;4.36;57.91
48848;BME280;36611;51.638;5.784;2022-12-17T04:16:53;102259.72;;;4.32;57.85
48848;BME280;36611;51.638;5.784;2022-12-17T04:19:37;102265.09;;;4.31;57.81
48848;BME280;36611;51.638;5.784;2022-12-17T04:22:22;102269.53;;;4.30;57.54
48848;BME280;36611;51.638;5.784;2022-12-17T04:25:07;102276.53;;;4.34;58.01
48848;BME280;36611;51.638;5.784;2022-12-17T04:27:52;102280.88;;;4.38;58.03
48848;BME280;36611;51.638;5.784;2022-12-17T04:30:37;102284.28;;;4.43;58.01
48848;BME280;36611;51.638;5.784;2022-12-17T04:33:22;102293.97;;;4.49;57.97
48848;BME280;36611;51.638;5.784;2022-12-17T04:36:18;102292.09;;;4.53;57.97
48848;BME280;36611;51.638;5.784;2022-12-17T04:39:03;102299.16;;;4.54;57.94
48848;BME280;36611;51.638;5.784;2022-12-17T04:41:48;102304.50;;;4.54;58.04
48848;BME280;36611;51.638;5.784;2022-12-17T04:44:33;102312.41;;;4.57;57.97
48848;BME280;36611;51.638;5.784;2022-12-17T04:47:17;102307.97;;;4.57;57.89
48848;BME280;36611;51.638;5.784;2022-12-17T04:50:03;102314.19;;;4.56;58.00
48848;BME280;36611;51.638;5.784;2022-12-17T04:52:48;102304.47;;;4.55;57.89
48848;BME280;36611;51.638;5.784;2022-12-17T04:55:33;102315.13;;;4.54;57.76
48848;BME280;36611;51.638;5.784;2022-12-17T04:58:18;102316.97;;;4.52;57.85
48848;BME280;36611;51.638;5.784;2022-12-17T05:01:03;102312.63;;;4.47;57.97
48848;BME280;36611;51.638;5.784;2022-12-17T05:03:48;102317.06;;;4.45;58.01
48848;BME280;36611;51.638;5.784;2022-12-17T05:06:33;102320.72;;;4.40;57.83
48848;BME280;36611;51.638;5.784;2022-12-17T05:09:18;102318.09;;;4.38;58.01
48848;BME280;36611;51.638;5.784;2022-12-17T05:12:03;102310.13;;;4.38;57.95
48848;BME280;36611;51.638;5.784;2022-12-17T05:14:49;102311.97;;;4.35;57.90
48848;BME280;36611;51.638;5.784;2022-12-17T05:17:33;102307.56;;;4.34;58.04
48848;BME280;36611;51.638;5.784;2022-12-17T05:20:18;102311.06;;;4.36;58.11
48848;BME280;36611;51.638;5.784;2022-12-17T05:23:07;102314.53;;;4.39;58.07
48848;BME280;36611;51.638;5.784;2022-12-17T05:26:04;102309.19;;;4.41;58.09
48848;BME280;36611;51.638;5.784;2022-12-17T05:28:49;102305.66;;;4.40;57.99
48848;BME280;36611;51.638;5.784;2022-12-17T05:31:41;102312.84;;;4.35;58.04
48848;BME280;36611;51.638;5.784;2022-12-17T05:34:26;102304.09;;;4.30;57.91
48848;BME280;36611;51.638;5.784;2022-12-17T05:37:11;102304.19;;;4.26;57.87
48848;BME280;36611;51.638;5.784;2022-12-17T05:39:56;102306.09;;;4.21;57.59
48848;BME280;36611;51.638;5.784;2022-12-17T05:42:41;102309.72;;;4.17;57.89
48848;BME280;36611;51.638;5.784;2022-12-17T05:45:26;102308.00;;;4.14;57.81
48848;BME280;36611;51.638;5.784;2022-12-17T05:48:11;102312.50;;;4.10;57.95
48848;BME280;36611;51.638;5.784;2022-12-17T05:50:56;102318.75;;;4.08;57.91
48848;BME280;36611;51.638;5.784;2022-12-17T05:53:41;102315.22;;;4.07;57.85
48848;BME280;36611;51.638;5.784;2022-12-17T05:56:26;102317.94;;;4.04;57.81
48848;BME280;36611;51.638;5.784;2022-12-17T05:59:11;102330.44;;;4.01;57.74
48848;BME280;36611;51.638;5.784;2022-12-17T06:01:55;102320.78;;;3.95;57.71
48848;BME280;36611;51.638;5.784;2022-12-17T06:04:41;102330.81;;;3.81;57.52
48848;BME280;36611;51.638;5.784;2022-12-17T06:07:28;102338.06;;;3.71;57.51
48848;BME280;36611;51.638;5.784;2022-12-17T06:10:13;102335.56;;;3.64;57.62
48848;BME280;36611;51.638;5.784;2022-12-17T06:12:58;102339.19;;;3.58;57.70
48848;BME280;36611;51.638;5.784;2022-12-17T06:15:47;102337.41;;;3.59;57.96
48848;BME280;36611;51.638;5.784;2022-12-17T06:18:34;102340.88;;;3.62;57.87
48848;BME280;36611;51.638;5.784;2022-12-17T06:21:20;102346.16;;;3.65;57.68
48848;BME280;36611;51.638;5.784;2022-12-17T06:24:05;102342.59;;;3.66;57.71
48848;BME280;36611;51.638;5.784;2022-12-17T06:26:51;102352.38;;;3.64;57.82
48848;BME280;36611;51.638;5.784;2022-12-17T06:29:36;102351.53;;;3.62;57.74
48848;BME280;36611;51.638;5.784;2022-12-17T06:32:21;102364.81;;;3.61;57.82
48848;BME280;36611;51.638;5.784;2022-12-17T06:35:07;102358.59;;;3.62;57.81
48848;BME280;36611;51.638;5.784;2022-12-17T06:38:04;102352.41;;;3.63;57.98
48848;BME280;36611;51.638;5.784;2022-12-17T06:40:52;102354.19;;;3.62;57.96
48848;BME280;36611;51.638;5.784;2022-12-17T06:43:37;102360.38;;;3.61;57.89
48848;BME280;36611;51.638;5.784;2022-12-17T06:46:22;102359.50;;;3.61;57.93
48848;BME280;36611;51.638;5.784;2022-12-17T06:49:07;102363.03;;;3.63;57.91
48848;BME280;36611;51.638;5.784;2022-12-17T06:51:54;102373.66;;;3.63;58.04
48848;BME280;36611;51.638;5.784;2022-12-17T06:54:40;102370.16;;;3.59;57.92
48848;BME280;36611;51.638;5.784;2022-12-17T06:57:41;102370.25;;;3.55;58.05
48848;BME280;36611;51.638;5.784;2022-12-17T07:00:27;102365.00;;;3.51;57.97
48848;BME280;36611;51.638;5.784;2022-12-17T07:03:12;102378.31;;;3.50;58.13
48848;BME280;36611;51.638;5.784;2022-12-17T07:06:00;102372.06;;;3.53;58.25
48848;BME280;36611;51.638;5.784;2022-12-17T07:08:45;102383.53;;;3.55;58.22
48848;BME280;36611;51.638;5.784;2022-12-17T07:11:31;102383.53;;;3.55;58.29
48848;BME280;36611;51.638;5.784;2022-12-17T07:14:16;102387.06;;;3.55;58.27
48848;BME280;36611;51.638;5.784;2022-12-17T07:17:01;102400.34;;;3.55;58.31
48848;BME280;36611;51.638;5.784;2022-12-17T07:19:46;102400.41;;;3.52;58.14
48848;BME280;36611;51.638;5.784;2022-12-17T07:22:32;102403.09;;;3.49;58.38
48848;BME280;36611;51.638;5.784;2022-12-17T07:25:18;102405.78;;;3.47;58.43
48848;BME280;36611;51.638;5.784;2022-12-17T07:28:11;102409.31;;;3.48;58.56
48848;BME280;36611;51.638;5.784;2022-12-17T07:30:56;102411.06;;;3.49;58.38
48848;BME280;36611;51.638;5.784;2022-12-17T07:33:41;102415.50;;;3.48;58.39
48848;BME280;36611;51.638;5.784;2022-12-17T07:36:26;102422.59;;;3.48;58.38
48848;BME280;36611;51.638;5.784;2022-12-17T07:39:11;102416.34;;;3.50;58.33
48848;BME280;36611;51.638;5.784;2022-12-17T07:41:56;102422.53;;;3.53;58.40
48848;BME280;36611;51.638;5.784;2022-12-17T07:44:41;102430.47;;;3.54;58.49
48848;BME280;36611;51.638;5.784;2022-12-17T07:47:26;102435.78;;;3.54;58.51
48848;BME280;36611;51.638;5.784;2022-12-17T07:50:11;102448.19;;;3.54;58.39
48848;BME280;36611;51.638;5.784;2022-12-17T07:53:03;102442.88;;;3.54;58.43
48848;BME280;36611;51.638;5.784;2022-12-17T07:55:50;102450.81;;;3.55;58.38
48848;BME280;36611;51.638;5.784;2022-12-17T07:58:35;102460.50;;;3.58;58.59
48848;BME280;36611;51.638;5.784;2022-12-17T08:01:20;102457.88;;;3.56;58.42
48848;BME280;36611;51.638;5.784;2022-12-17T08:04:06;102460.53;;;3.56;58.39
48848;BME280;36611;51.638;5.784;2022-12-17T08:07:10;102466.66;;;3.61;58.46
48848;BME280;36611;51.638;5.784;2022-12-17T08:09:56;102463.94;;;3.64;58.53
48848;BME280;36611;51.638;5.784;2022-12-17T08:12:40;102462.16;;;3.65;58.54
48848;BME280;36611;51.638;5.784;2022-12-17T08:15:25;102462.16;;;3.65;58.58
48848;BME280;36611;51.638;5.784;2022-12-17T08:18:10;102462.13;;;3.66;58.50
48848;BME280;36611;51.638;5.784;2022-12-17T08:20:56;102468.31;;;3.67;58.46
48848;BME280;36611;51.638;5.784;2022-12-17T08:23:41;102474.50;;;3.69;58.46
48848;BME280;36611;51.638;5.784;2022-12-17T08:26:26;102484.19;;;3.71;58.55
48848;BME280;36611;51.638;5.784;2022-12-17T08:29:13;102481.53;;;3.73;58.30
48848;BME280;36611;51.638;5.784;2022-12-17T08:31:59;102477.13;;;3.70;58.40
48848;BME280;36611;51.638;5.784;2022-12-17T08:34:55;102473.56;;;3.71;58.41
48848;BME280;36611;51.638;5.784;2022-12-17T08:37:40;102483.31;;;3.74;58.53
48848;BME280;36611;51.638;5.784;2022-12-17T08:40:25;102480.63;;;3.75;58.46
48848;BME280;36611;51.638;5.784;2022-12-17T08:43:10;102486.78;;;3.77;58.42
48848;BME280;36611;51.638;5.784;2022-12-17T08:45:55;102487.63;;;3.79;58.56
48848;BME280;36611;51.638;5.784;2022-12-17T08:48:40;102486.72;;;3.80;58.47
48848;BME280;36611;51.638;5.784;2022-12-17T08:51:31;102499.13;;;3.81;58.37
48848;BME280;36611;51.638;5.784;2022-12-17T08:54:16;102488.50;;;3.81;58.34
48848;BME280;36611;51.638;5.784;2022-12-17T08:57:01;102492.00;;;3.83;58.51
48848;BME280;36611;51.638;5.784;2022-12-17T08:59:57;102488.44;;;3.85;58.46
48848;BME280;36611;51.638;5.784;2022-12-17T09:02:42;102490.09;;;3.90;58.39
48848;BME280;36611;51.638;5.784;2022-12-17T09:05:28;102491.03;;;3.88;58.36
48848;BME280;36611;51.638;5.784;2022-12-17T09:08:24;102489.25;;;3.88;58.36
48848;BME280;36611;51.638;5.784;2022-12-17T09:11:09;102491.03;;;3.88;58.36
48848;BME280;36611;51.638;5.784;2022-12-17T09:13:54;102505.19;;;3.90;58.40
48848;BME280;36611;51.638;5.784;2022-12-17T09:16:39;102505.19;;;3.90;58.48
48848;BME280;36611;51.638;5.784;2022-12-17T09:19:24;102503.44;;;3.89;58.46
48848;BME280;36611;51.638;5.784;2022-12-17T09:22:10;102511.41;;;3.89;58.40
48848;BME280;36611;51.638;5.784;2022-12-17T09:24:54;102515.84;;;3.87;58.34
48848;BME280;36611;51.638;5.784;2022-12-17T09:27:40;102515.03;;;3.83;58.24
48848;BME280;36611;51.638;5.784;2022-12-17T09:30:25;102520.38;;;3.81;58.30
48848;BME280;36611;51.638;5.784;2022-12-17T09:33:15;102523.91;;;3.82;58.20
48848;BME280;36611;51.638;5.784;2022-12-17T09:36:04;102522.97;;;3.85;58.36
48848;BME280;36611;51.638;5.784;2022-12-17T09:38:50;102535.31;;;3.89;58.45
48848;BME280;36611;51.638;5.784;2022-12-17T09:42:29;102533.50;;;3.91;58.29
48848;BME280;36611;51.638;5.784;2022-12-17T09:45:21;102532.56;;;3.95;58.06
48848;BME280;36611;51.638;5.784;2022-12-17T09:51:33;102541.47;;;3.91;58.28
48848;BME280;36611;51.638;5.784;2022-12-17T09:54:24;102538.81;;;3.91;58.25
48848;BME280;36611;51.638;5.784;2022-12-17T09:57:16;102537.06;;;3.90;58.28
48848;BME280;36611;51.638;5.784;2022-12-17T10:00:21;102537.94;;;3.92;58.21
48848;BME280;36611;51.638;5.784;2022-12-17T10:03:11;102542.31;;;3.94;58.14
48848;BME280;36611;51.638;5.784;2022-12-17T10:06:01;102552.00;;;3.97;58.40
48848;BME280;36611;51.638;5.784;2022-12-17T10:08:49;102552.84;;;4.00;58.19
48848;BME280;36611;51.638;5.784;2022-12-17T10:11:42;102551.91;;;4.03;58.15
48848;BME280;36611;51.638;5.784;2022-12-17T10:14:27;102558.94;;;4.07;58.29
48848;BME280;36611;51.638;5.784;2022-12-17T10:17:16;102553.53;;;4.11;58.19
48848;BME280;36611;51.638;5.784;2022-12-17T10:20:02;102551.69;;;4.15;58.22
48848;BME280;36611;51.638;5.784;2022-12-17T10:22:49;102551.69;;;4.15;58.20
48848;BME280;36611;51.638;5.784;2022-12-17T10:25:34;102544.56;;;4.17;58.22
48848;BME280;36611;51.638;5.784;2022-12-17T10:28:23;102556.09;;;4.18;58.11
48848;BME280;36611;51.638;5.784;2022-12-17T10:31:09;102547.25;;;4.17;58.25
48848;BME280;36611;51.638;5.784;2022-12-17T10:33:56;102549.03;;;4.17;58.17
48848;BME280;36611;51.638;5.784;2022-12-17T10:36:45;102552.56;;;4.17;58.14
48848;BME280;36611;51.638;5.784;2022-12-17T10:39:32;102551.66;;;4.18;58.06
48848;BME280;36611;51.638;5.784;2022-12-17T10:45:20;102541.97;;;4.14;57.98
48848;BME280;36611;51.638;5.784;2022-12-17T10:48:24;102548.13;;;4.18;58.07
48848;BME280;36611;51.638;5.784;2022-12-17T10:57:31;102557.72;;;4.26;58.16
48848;BME280;36611;51.638;5.784;2022-12-17T11:03:02;102560.25;;;4.32;57.98
48848;BME280;36611;51.638;5.784;2022-12-17T11:05:51;102567.25;;;4.38;58.05
48848;BME280;36611;51.638;5.784;2022-12-17T11:08:38;102557.50;;;4.38;58.08
48848;BME280;36611;51.638;5.784;2022-12-17T11:11:25;102557.56;;;4.34;57.95
48848;BME280;36611;51.638;5.784;2022-12-17T11:14:12;102563.03;;;4.26;57.90
48848;BME280;36611;51.638;5.784;2022-12-17T11:17:01;102559.59;;;4.20;57.89
48848;BME280;36611;51.638;5.784;2022-12-17T11:20:05;102552.59;;;4.14;57.64
48848;BME280;36611;51.638;5.784;2022-12-17T11:22:54;102557.94;;;4.12;58.00
48848;BME280;36611;51.638;5.784;2022-12-17T11:26:02;102557.06;;;4.12;57.97
48848;BME280;36611;51.638;5.784;2022-12-17T11:28:48;102563.25;;;4.14;58.02
48848;BME280;36611;51.638;5.784;2022-12-17T11:32:01;102561.50;;;4.11;57.90
48848;BME280;36611;51.638;5.784;2022-12-17T11:35:04;102572.19;;;4.10;57.87
48848;BME280;36611;51.638;5.784;2022-12-17T11:38:16;102561.53;;;4.10;57.91
48848;BME280;36611;51.638;5.784;2022-12-17T11:41:15;102562.38;;;4.13;58.15
48848;BME280;36611;51.638;5.784;2022-12-17T11:44:08;102561.41;;;4.18;57.92
48848;BME280;36611;51.638;5.784;2022-12-17T11:47:28;102557.91;;;4.15;57.83
48848;BME280;36611;51.638;5.784;2022-12-17T11:50:27;102549.97;;;4.12;57.81
48848;BME280;36611;51.638;5.784;2022-12-17T11:56:23;102554.53;;;4.04;57.82
48848;BME280;36611;51.638;5.784;2022-12-17T12:02:20;102542.22;;;4.00;57.69
48848;BME280;36611;51.638;5.784;2022-12-17T12:05:41;102536.97;;;3.96;57.77
48848;BME280;36611;51.638;5.784;2022-12-17T12:08:37;102544.97;;;3.94;57.88
48848;BME280;36611;51.638;5.784;2022-12-17T12:17:48;102537.13;;;3.87;57.83
48848;BME280;36611;51.638;5.784;2022-12-17T12:26:42;102543.56;;;3.70;57.81
48848;BME280;36611;51.638;5.784;2022-12-17T12:29:42;102540.06;;;3.67;57.70
48848;BME280;36611;51.638;5.784;2022-12-17T12:33:17;102534.91;;;3.58;57.70
48848;BME280;36611;51.638;5.784;2022-12-17T12:36:09;102544.66;;;3.56;57.72
48848;BME280;36611;51.638;5.784;2022-12-17T12:38:59;102555.31;;;3.54;57.96
48848;BME280;36611;51.638;5.784;2022-12-17T12:41:53;102551.75;;;3.55;57.88
48848;BME280;36611;51.638;5.784;2022-12-17T12:47:54;102539.41;;;3.53;57.77
48848;BME280;36611;51.638;5.784;2022-12-17T12:50:47;102542.16;;;3.46;57.70
48848;BME280;36611;51.638;5.784;2022-12-17T12:53:34;102537.81;;;3.39;57.75
48848;BME280;36611;51.638;5.784;2022-12-17T12:59:23;102531.69;;;3.34;57.85
48848;BME280;36611;51.638;5.784;2022-12-17T13:02:31;102528.22;;;3.31;57.96
48848;BME280;36611;51.638;5.784;2022-12-17T13:05:23;102529.09;;;3.31;57.76
48848;BME280;36611;51.638;5.784;2022-12-17T13:10:35;102536.19;;;3.31;57.82
48848;BME280;36611;51.638;5.784;2022-12-17T13:13:12;102531.75;;;3.31;57.81
48848;BME280;36611;51.638;5.784;2022-12-17T13:16:03;102520.25;;;3.31;57.93
48848;BME280;36611;51.638;5.784;2022-12-17T13:18:42;102517.50;;;3.37;57.95
48848;BME280;36611;51.638;5.784;2022-12-17T13:23:42;102524.47;;;3.44;58.04
48848;BME280;36611;51.638;5.784;2022-12-17T13:29:01;102520.94;;;3.43;57.90
48848;BME280;36611;51.638;5.784;2022-12-17T13:37:11;102516.69;;;3.32;57.87
48848;BME280;36611;51.638;5.784;2022-12-17T13:39:53;102520.25;;;3.31;57.73
48848;BME280;36611;51.638;5.784;2022-12-17T13:42:31;102518.47;;;3.31;57.58
48848;BME280;36611;51.638;5.784;2022-12-17T13:44:57;102516.66;;;3.33;57.92
48848;BME280;36611;51.638;5.784;2022-12-17T13:47:26;102513.91;;;3.39;57.94
48848;BME280;36611;51.638;5.784;2022-12-17T13:49:55;102514.72;;;3.46;57.62
48848;BME280;36611;51.638;5.784;2022-12-17T13:52:42;102518.19;;;3.49;57.87
48848;BME280;36611;51.638;5.784;2022-12-17T13:55:16;102524.34;;;3.53;57.56
48848;BME280;36611;51.638;5.784;2022-12-17T13:57:45;102523.44;;;3.54;57.92
48848;BME280;36611;51.638;5.784;2022-12-17T14:00:29;102531.41;;;3.54;57.99
48848;BME280;36611;51.638;5.784;2022-12-17T14:02:56;102526.03;;;3.59;57.84
48848;BME280;36611;51.638;5.784;2022-12-17T14:05:32;102530.47;;;3.57;57.82
48848;BME280;36611;51.638;5.784;2022-12-17T14:08:03;102525.13;;;3.60;57.86
48848;BME280;36611;51.638;5.784;2022-12-17T14:10:31;102530.38;;;3.63;57.86
48848;BME280;36611;51.638;5.784;2022-12-17T14:13:05;102526.84;;;3.62;57.68
48848;BME280;36611;51.638;5.784;2022-12-17T14:15:32;102532.22;;;3.59;57.66
48848;BME280;36611;51.638;5.784;2022-12-17T14:18:00;102535.78;;;3.58;57.70
48848;BME280;36611;51.638;5.784;2022-12-17T14:20:33;102534.06;;;3.54;57.71
48848;BME280;36611;51.638;5.784;2022-12-17T14:23:06;102528.69;;;3.57;57.70
48848;BME280;36611;51.638;5.784;2022-12-17T14:25:38;102530.50;;;3.55;57.65
48848;BME280;36611;51.638;5.784;2022-12-17T14:28:28;102541.13;;;3.55;57.73
48848;BME280;36611;51.638;5.784;2022-12-17T14:31:06;102541.13;;;3.55;57.71
48848;BME280;36611;51.638;5.784;2022-12-17T14:34:08;102545.53;;;3.56;57.72
48848;BME280;36611;51.638;5.784;2022-12-17T14:36:39;102543.78;;;3.55;57.61
48848;BME280;36611;51.638;5.784;2022-12-17T14:39:27;102544.78;;;3.48;57.50
48848;BME280;36611;51.638;5.784;2022-12-17T14:42:06;102551.91;;;3.44;57.37
48848;BME280;36611;51.638;5.784;2022-12-17T14:45:05;102552.88;;;3.39;57.53
48848;BME280;36611;51.638;5.784;2022-12-17T14:47:59;102549.38;;;3.35;57.53
48848;BME280;36611;51.638;5.784;2022-12-17T14:50:32;102549.38;;;3.37;57.60
48848;BME280;36611;51.638;5.784;2022-12-17T14:53:03;102556.44;;;3.38;57.48
48848;BME280;36611;51.638;5.784;2022-12-17T14:55:55;102567.97;;;3.37;57.62
48848;BME280;36611;51.638;5.784;2022-12-17T14:58:23;102567.09;;;3.35;57.53
48848;BME280;36611;51.638;5.784;2022-12-17T15:01:06;102559.19;;;3.32;57.55
48848;BME280;36611;51.638;5.784;2022-12-17T15:03:42;102557.50;;;3.25;57.53
48848;BME280;36611;51.638;5.784;2022-12-17T15:06:12;102569.09;;;3.19;57.57
48848;BME280;36611;51.638;5.784;2022-12-17T15:08:45;102577.97;;;3.16;57.51
48848;BME280;36611;51.638;5.784;2022-12-17T15:11:15;102570.94;;;3.12;57.67
48848;BME280;36611;51.638;5.784;2022-12-17T15:13:42;102566.59;;;3.07;57.39
48848;BME280;36611;51.638;5.784;2022-12-17T15:16:09;102571.94;;;3.04;57.55
48848;BME280;36611;51.638;5.784;2022-12-17T15:18:38;102569.28;;;3.02;57.75
48848;BME280;36611;51.638;5.784;2022-12-17T15:21:07;102582.56;;;3.04;57.81
48848;BME280;36611;51.638;5.784;2022-12-17T15:23:38;102585.19;;;3.04;57.74
48848;BME280;36611;51.638;5.784;2022-12-17T15:26:08;102581.72;;;3.00;57.75
48848;BME280;36611;51.638;5.784;2022-12-17T15:28:35;102593.25;;;2.98;57.69
48848;BME280;36611;51.638;5.784;2022-12-17T15:31:02;102593.25;;;2.93;57.68
48848;BME280;36611;51.638;5.784;2022-12-17T15:33:29;102588.03;;;2.87;57.65
48848;BME280;36611;51.638;5.784;2022-12-17T15:35:57;102594.25;;;2.83;57.62
48848;BME280;36611;51.638;5.784;2022-12-17T15:38:23;102601.41;;;2.78;57.65